King Salmon, AK (99549)

3:01 PM AKDT on October 01, 2016 (GMT -0800)
Port Heiden | | Change Station

Elev 95 ft 56.96 °N, 158.63 °W | Updated 5 minutes ago

Light Rain
Light Rain Mist
52 °F
Feels Like 52 °F
N
18
Wind Variable Wind from SW
Gusts 23 mph

Today
High -- | Low -- °F
--% Chance of Precip.
Yesterday
High -- | Low -- °F
Precip. -- in
Pressure 29.47 in
Visibility 1.8 miles
Clouds Few 300 ft
Mostly Cloudy 800 ft
Overcast 1600 ft
Dew Point 51 °F
Humidity 97%
Rainfall 0.26 in
Snow Depth Not available.
8:39 AM 8:07 PM
New Moon, 1% visible
METAR PAPH 012256Z AUTO 23016G20KT 1 3/4SM -RA BR FEW003 BKN008 OVC016 11/11 A2945 RMK AO2 CIG 007V010 SLP977 P0007 T01110106
Pressure 29.47 in
Visibility 1.8 miles
Clouds Few 300 ft
Mostly Cloudy 800 ft
Overcast 1600 ft
Dew Point 51 °F
Humidity 97%
Rainfall 0.26 in
Snow Depth Not available.
8:39 AM 8:07 PM
New Moon, 1% visible
METAR PAPH 012256Z AUTO 23016G20KT 1 3/4SM -RA BR FEW003 BKN008 OVC016 11/11 A2945 RMK AO2 CIG 007V010 SLP977 P0007 T01110106

10-Day Weather Forecast

Almanac

Astronomy

Oct. 01, 2016 Rise Set
Actual Time
Civil Twilight
Nautical Twilight
Astronomical Twilight
Moon
Length of Visible Light
Length of Day
Tomorrow will be .
, % of the Moon is Illuminated

Today's Extremes

State Highs State Lows

Community

WunderPhotos

Upload Photos

1,943,047 photos uploaded!

WunderBlog® & News

Nearby

Air Quality

  Air Quality AQ Index Pollutant
Not available.

Snow Depth

Station Depth Elevation

Earthquake Activity

City Distance Mag. Time & Date
Minimum magnitude displayed is 2.5.

Coastal Water Temperatures

Place Temperature

Stations

Nearby Weather Stations

Station Location Temp. Windchill Dew Point Humidity Wind Precip. Elev Updated Type
                   

Watches & Warnings

There are currently no watches in effect.